»·PEaware :: DAL1498 KGEG-KSLC

DAL1498 :: KGEG-KSLC

FLIGHT INFORMATION

Flight Status: Arrived
Operator:
Delta Air Lines
More flights by this operator :: More flights under this callsign
Pilot: Diana T. (22608)
Aircraft: BOEING 757-200
(B752)
More flights by this aircraft type
Origin: KGEG Spokane Intl
United States
Destination: KSLC Salt Lake City Intl
United States
More flights between these airports :: More routes between these airports
Route: +GEG6 DNJ BYI SKEES5
File this flight plan on PilotEdge
Remarks: RMK / SIMBRIEF
Altitude:
(Current/Filed)
37,000ft
Speed:
(Current/Filed)
460kts
Departed: 08-Nov-20 01:25 PM
Arrived: 08-Nov-20 02:53 PM
Distance/Time
Traveled:
474nm/1:28
Distance/Time
To Go:
Arrived

Flight Plot

Page will automatically refresh every two minutes.

Flight plan parsing failed; only flown route is shown


Map Options




Map Legend


Flown Route
Filed Route
Departure Airport
Arrival Airport
Navaid (VOR, NDB)
Fix

Horizontal Profiles

Position Reports

Time Latitude Longitude Heading Altitude Ground
Speed
08-Nov-20 12:00 47.623961 -117.536375 34 2363ft 0kts
08-Nov-20 12:01 47.623961 -117.536375 35 2363ft 0kts
08-Nov-20 12:02 47.623961 -117.536375 35 2363ft 0kts
08-Nov-20 12:03 47.623961 -117.536375 35 2363ft 0kts
08-Nov-20 12:04 47.623961 -117.536375 35 2363ft 0kts
08-Nov-20 12:05 47.623961 -117.536375 35 2363ft 0kts
08-Nov-20 12:06 47.623961 -117.536375 35 2363ft 0kts
08-Nov-20 12:07 47.623961 -117.536375 35 2363ft 0kts
08-Nov-20 12:08 47.623961 -117.536375 35 2363ft 0kts
08-Nov-20 12:09 47.623961 -117.536375 35 2363ft 0kts
08-Nov-20 12:10 47.623961 -117.536375 35 2363ft 0kts
08-Nov-20 12:11 47.623961 -117.536375 35 2363ft 0kts
08-Nov-20 12:12 47.623961 -117.536375 35 2363ft 0kts
08-Nov-20 12:13 47.623961 -117.536375 35 2363ft 0kts
08-Nov-20 12:14 47.623961 -117.536375 35 2363ft 0kts
08-Nov-20 12:15 47.623961 -117.536375 35 2363ft 0kts
08-Nov-20 12:16 47.623961 -117.536375 35 2363ft 0kts
08-Nov-20 12:17 47.623961 -117.536375 35 2363ft 0kts
08-Nov-20 12:18 47.623961 -117.536375 35 2363ft 0kts
08-Nov-20 12:19 47.623961 -117.536375 35 2363ft 0kts
08-Nov-20 12:20 47.623961 -117.536375 35 2363ft 0kts
08-Nov-20 12:21 47.623961 -117.536375 35 2363ft 0kts
08-Nov-20 12:22 47.623961 -117.536375 35 2363ft 0kts
08-Nov-20 12:23 47.623961 -117.536375 34 2363ft 0kts
08-Nov-20 12:24 47.623961 -117.536375 34 2363ft 0kts
08-Nov-20 12:25 47.623961 -117.536375 34 2363ft 0kts
08-Nov-20 12:26 47.623961 -117.536375 34 2363ft 0kts
08-Nov-20 12:27 47.623961 -117.536375 34 2363ft 0kts
08-Nov-20 12:28 47.623961 -117.536375 34 2363ft 0kts
08-Nov-20 12:29 47.623961 -117.536375 34 2363ft 0kts
08-Nov-20 12:30 47.623961 -117.536375 34 2363ft 0kts
08-Nov-20 12:31 47.623961 -117.536375 34 2363ft 0kts
08-Nov-20 12:32 47.623961 -117.536375 34 2363ft 0kts
08-Nov-20 12:33 47.623961 -117.536375 34 2363ft 0kts
08-Nov-20 12:34 47.623961 -117.536375 34 2363ft 0kts
08-Nov-20 12:35 47.623961 -117.536375 34 2363ft 0kts
08-Nov-20 12:36 47.623961 -117.536375 34 2363ft 0kts
08-Nov-20 12:37 47.623961 -117.536375 34 2363ft 0kts
08-Nov-20 12:38 47.623961 -117.536375 34 2363ft 0kts
08-Nov-20 12:39 47.623961 -117.536375 34 2363ft 0kts
08-Nov-20 12:40 47.623961 -117.536375 34 2363ft 0kts
08-Nov-20 12:41 47.623961 -117.536375 34 2363ft 0kts
08-Nov-20 12:42 47.623961 -117.536375 34 2363ft 0kts
08-Nov-20 12:43 47.623961 -117.536375 34 2363ft 0kts
08-Nov-20 12:44 47.623961 -117.536375 34 2363ft 0kts
08-Nov-20 12:45 47.623961 -117.536375 34 2363ft 0kts
08-Nov-20 12:46 47.623961 -117.536375 34 2363ft 0kts
08-Nov-20 12:47 47.623961 -117.536375 34 2363ft 0kts
08-Nov-20 12:48 47.623961 -117.536375 34 2363ft 0kts
08-Nov-20 12:49 47.623961 -117.536375 34 2363ft 0kts
08-Nov-20 12:51 47.623961 -117.536375 34 2363ft 0kts
08-Nov-20 12:52 47.623961 -117.536375 34 2363ft 0kts
08-Nov-20 12:53 47.623961 -117.536375 34 2363ft 0kts
08-Nov-20 12:54 47.623961 -117.536375 34 2363ft 0kts
08-Nov-20 12:55 47.623961 -117.536375 34 2363ft 0kts
08-Nov-20 12:56 47.623961 -117.536375 34 2363ft 0kts
08-Nov-20 12:57 47.623961 -117.536375 34 2363ft 0kts
08-Nov-20 12:58 47.623961 -117.536375 34 2363ft 0kts
08-Nov-20 12:59 47.623961 -117.536375 34 2363ft 0kts
08-Nov-20 13:00 47.623961 -117.536375 34 2363ft 0kts
08-Nov-20 13:01 47.623961 -117.536375 34 2363ft 0kts
08-Nov-20 13:02 47.623961 -117.536375 34 2363ft 0kts
08-Nov-20 13:03 47.623961 -117.536375 34 2363ft 0kts
08-Nov-20 13:04 47.623961 -117.536375 34 2363ft 0kts
08-Nov-20 13:05 47.623961 -117.536375 34 2363ft 0kts
08-Nov-20 13:06 47.623961 -117.536375 34 2363ft 0kts
08-Nov-20 13:07 47.623961 -117.536375 34 2363ft 0kts
08-Nov-20 13:07 47.623961 -117.536375 34 2363ft 0kts
08-Nov-20 13:09 47.623824 -117.536519 34 2363ft 2kts
08-Nov-20 13:09 47.623385 -117.536657 306 2363ft 2kts
08-Nov-20 13:11 47.622813 -117.536678 47 2363ft 0kts
08-Nov-20 13:11 47.622813 -117.536678 47 2363ft 0kts
08-Nov-20 13:13 47.622813 -117.536678 47 2363ft 0kts
08-Nov-20 13:13 47.622813 -117.536678 47 2363ft 0kts
08-Nov-20 13:14 47.623192 -117.536011 64 2363ft 5kts
08-Nov-20 13:15 47.623220 -117.535865 85 2363ft 0kts
08-Nov-20 13:16 47.622770 -117.535229 189 2362ft 9kts
08-Nov-20 13:17 47.619579 -117.539807 225 2366ft 14kts
08-Nov-20 13:18 47.616352 -117.544667 224 2375ft 19kts
08-Nov-20 13:19 47.612952 -117.549796 224 2383ft 15kts
08-Nov-20 13:20 47.610961 -117.551125 136 2389ft 2kts
08-Nov-20 13:21 47.610943 -117.551100 136 2389ft 0kts
08-Nov-20 13:22 47.610916 -117.551062 136 2389ft 2kts
08-Nov-20 13:23 47.610686 -117.549205 48 2390ft 0kts
08-Nov-20 13:24 47.619728 -117.535575 45 2370ft 139kts
08-Nov-20 13:25 47.655225 -117.483889 43 3872ft 205kts
08-Nov-20 13:26 47.699836 -117.419016 43 5333ft 250kts
08-Nov-20 13:27 47.749407 -117.346350 44 8067ft 253kts
08-Nov-20 13:28 47.740334 -117.255744 148 10264ft 293kts
08-Nov-20 13:29 47.649120 -117.222433 164 11630ft 356kts
08-Nov-20 13:30 47.550441 -117.189771 161 13712ft 368kts
08-Nov-20 13:31 47.449255 -117.151727 162 15240ft 380kts
08-Nov-20 13:32 47.345072 -117.113159 162 16701ft 390kts
08-Nov-20 13:33 47.237970 -117.073686 163 18142ft 400kts
08-Nov-20 13:34 47.128592 -117.033568 162 19643ft 407kts
08-Nov-20 13:35 47.017345 -116.992921 162 21081ft 415kts
08-Nov-20 13:36 46.903855 -116.951638 162 22467ft 422kts
08-Nov-20 13:37 46.787980 -116.909664 161 23745ft 431kts
08-Nov-20 13:38 46.669979 -116.867121 161 25063ft 437kts
08-Nov-20 13:39 46.550408 -116.824205 161 26368ft 442kts
08-Nov-20 13:40 46.429565 -116.781023 161 27585ft 449kts
08-Nov-20 13:41 46.306619 -116.737298 161 28807ft 456kts
08-Nov-20 13:42 46.182419 -116.693323 161 29943ft 463kts
08-Nov-20 13:43 46.055300 -116.648518 161 31024ft 473kts
08-Nov-20 13:44 45.926171 -116.603239 162 32454ft 475kts
08-Nov-20 13:45 45.797761 -116.558439 163 34156ft 472kts
08-Nov-20 13:46 45.669442 -116.513873 163 35703ft 470kts
08-Nov-20 13:47 45.541631 -116.469689 163 36802ft 471kts
08-Nov-20 13:48 45.413819 -116.425714 163 36770ft 470kts
08-Nov-20 13:49 45.286025 -116.381946 163 36769ft 470kts
08-Nov-20 13:50 45.158001 -116.338298 164 36773ft 470kts
08-Nov-20 13:51 45.030310 -116.294971 164 36740ft 471kts
08-Nov-20 13:52 44.902204 -116.251703 164 36700ft 471kts
08-Nov-20 13:53 44.776409 -116.203991 153 36705ft 467kts
08-Nov-20 13:54 44.670714 -116.097881 140 36697ft 463kts
08-Nov-20 13:55 44.569531 -115.985416 140 36698ft 463kts
08-Nov-20 13:56 44.468959 -115.873825 140 36697ft 461kts
08-Nov-20 13:57 44.367511 -115.761727 140 36686ft 461kts
08-Nov-20 13:58 44.266559 -115.650673 140 36679ft 461kts
08-Nov-20 13:59 44.165130 -115.539588 140 36679ft 461kts
08-Nov-20 14:00 44.063805 -115.429125 140 36679ft 460kts
08-Nov-20 14:01 43.963324 -115.320046 141 36680ft 461kts
08-Nov-20 14:02 43.863298 -115.211975 141 36680ft 460kts
08-Nov-20 14:03 43.761659 -115.102627 142 36707ft 460kts
08-Nov-20 14:04 43.660083 -114.993831 142 36729ft 459kts
08-Nov-20 14:05 43.558205 -114.885186 142 36716ft 459kts
08-Nov-20 14:06 43.456555 -114.777259 142 36716ft 457kts
08-Nov-20 14:07 43.354689 -114.669578 142 36716ft 458kts
08-Nov-20 14:08 43.252688 -114.562218 142 36715ft 458kts
08-Nov-20 14:09 43.150511 -114.455134 142 36728ft 458kts
08-Nov-20 14:10 43.049542 -114.349769 143 36762ft 457kts
08-Nov-20 14:11 42.947330 -114.243574 143 36778ft 457kts
08-Nov-20 14:12 42.847770 -114.140560 144 36781ft 457kts
08-Nov-20 14:13 42.745701 -114.035391 144 36780ft 456kts
08-Nov-20 14:14 42.643541 -113.930569 144 36774ft 454kts
08-Nov-20 14:15 42.545950 -113.819644 137 36763ft 457kts
08-Nov-20 14:16 42.458550 -113.702581 137 36359ft 424kts
08-Nov-20 14:17 42.374172 -113.590010 137 35362ft 425kts
08-Nov-20 14:18 42.289046 -113.476844 137 33984ft 427kts
08-Nov-20 14:19 42.204145 -113.364448 137 32053ft 428kts
08-Nov-20 14:20 42.119761 -113.253175 138 30111ft 429kts
08-Nov-20 14:21 42.034383 -113.140981 138 28143ft 420kts
08-Nov-20 14:22 41.951507 -113.032516 140 26240ft 405kts
08-Nov-20 14:23 41.872650 -112.929750 140 24458ft 394kts
08-Nov-20 14:24 41.794221 -112.827948 141 23757ft 391kts
08-Nov-20 14:25 41.715898 -112.726567 141 23755ft 390kts
08-Nov-20 14:26 41.635720 -112.623201 140 21502ft 392kts
08-Nov-20 14:27 41.559438 -112.525159 140 19670ft 374kts
08-Nov-20 14:28 41.479303 -112.441597 151 17062ft 360kts
08-Nov-20 14:29 41.392077 -112.379473 155 16752ft 355kts
08-Nov-20 14:30 41.304404 -112.317481 155 15384ft 348kts
08-Nov-20 14:31 41.225584 -112.261584 154 14693ft 288kts
08-Nov-20 14:32 41.156871 -112.209033 154 12446ft 281kts
08-Nov-20 14:33 41.089530 -112.157687 153 11150ft 275kts
08-Nov-20 14:34 41.018035 -112.134856 173 10997ft 242kts
08-Nov-20 14:35 40.953819 -112.120891 173 11006ft 231kts
08-Nov-20 14:36 40.890249 -112.107952 178 11007ft 227kts
08-Nov-20 14:37 40.826290 -112.101464 178 9644ft 227kts
08-Nov-20 14:38 40.765362 -112.096261 178 9016ft 200kts
08-Nov-20 14:39 40.709258 -112.091363 178 9008ft 201kts
08-Nov-20 14:40 40.653343 -112.086422 178 9009ft 200kts
08-Nov-20 14:41 40.597268 -112.081406 178 9009ft 199kts
08-Nov-20 14:43 40.541868 -112.076393 178 9009ft 198kts
08-Nov-20 14:44 40.486551 -112.071341 178 9007ft 197kts
08-Nov-20 14:45 40.456484 -112.017801 101 9007ft 215kts
08-Nov-20 14:46 40.471017 -111.946912 17 9029ft 228kts
08-Nov-20 14:47 40.528223 -111.966797 353 7361ft 218kts
08-Nov-20 14:48 40.585771 -111.973503 352 6121ft 183kts
08-Nov-20 14:49 40.638684 -111.979664 352 6110ft 190kts
08-Nov-20 14:50 40.691066 -111.985723 353 5898ft 173kts
08-Nov-20 14:51 40.731532 -111.990255 352 5114ft 135kts
08-Nov-20 14:52 40.768066 -111.994747 355 4422ft 132kts
08-Nov-20 14:53 40.794733 -111.996919 45 4239ft 31kts
08-Nov-20 14:54 40.794787 -111.994686 165 4239ft 6kts
08-Nov-20 14:55 40.792398 -111.994350 175 4238ft 14kts
08-Nov-20 14:56 40.790182 -111.994073 173 4239ft 0kts
08-Nov-20 14:57 40.790165 -111.994070 173 4239ft 1kts
08-Nov-20 14:58 40.787108 -111.993735 174 4239ft 14kts
08-Nov-20 14:59 40.784189 -111.992075 98 4239ft 8kts
08-Nov-20 14:59 40.784265 -111.989761 84 4239ft 6kts
08-Nov-20 15:01 40.784963 -111.987055 5 4239ft 3kts
08-Nov-20 15:02 40.785121 -111.987033 6 4239ft 0kts
08-Nov-20 15:02 40.785121 -111.987033 6 4239ft 0kts
08-Nov-20 15:03 40.785121 -111.987033 6 4239ft 0kts
08-Nov-20 15:04 40.785121 -111.987033 6 4239ft 0kts
08-Nov-20 15:05 40.785121 -111.987033 6 4239ft 0kts
08-Nov-20 15:06 40.785121 -111.987033 6 4239ft 0kts

Navigation Log

Ident Type
Flight plan parsing failed, navigation log unavailable